Terminal Aerodrome Forecast
Issued by NWS

Home | Current Version | Previous Version | Graphics & Text | Print | Product List | Glossary On
Versions: 1 2 3 4 5 6 7 8 9 10 11 12 13 14 15 16
138
FTUS43 KMPX 231516 AAA
TAFRWF
TAF AMD
KRWF 231516Z 2315/2412 15016KT P6SM OVC045
     FM231600 16018G25KT P6SM BKN025 OVC040
     FM231700 15015G23KT P6SM -SHRA VCTS OVC015CB
     FM232100 15012KT P6SM VCSH OVC008
     FM240000 14009KT 5SM -SHRA OVC008
     FM240300 12006KT 4SM -SHRA BR OVC008
     FM240600 09005KT 1SM SHRA BR OVC008=

USA.gov is the U.S. government's official web portal to all federal, state and local government web resources and services.